sensor_id;sensor_type;location;lat;lon;timestamp;P1;durP1;ratioP1;P2;durP2;ratioP2
6809;SDS011;3443;48.812;9.112;2023-02-01T00:00:05;1.87;;;1.77;;
6809;SDS011;3443;48.812;9.112;2023-02-01T00:02:31;2.30;;;2.20;;
6809;SDS011;3443;48.812;9.112;2023-02-01T00:04:56;1.83;;;1.73;;
6809;SDS011;3443;48.812;9.112;2023-02-01T00:07:22;2.00;;;1.90;;
6809;SDS011;3443;48.812;9.112;2023-02-01T00:09:47;2.53;;;2.10;;
6809;SDS011;3443;48.812;9.112;2023-02-01T00:12:13;1.60;;;1.60;;
6809;SDS011;3443;48.812;9.112;2023-02-01T00:14:38;1.87;;;1.77;;
6809;SDS011;3443;48.812;9.112;2023-02-01T00:17:05;1.60;;;1.60;;
6809;SDS011;3443;48.812;9.112;2023-02-01T00:19:31;1.50;;;1.50;;
6809;SDS011;3443;48.812;9.112;2023-02-01T00:21:57;1.67;;;1.60;;
6809;SDS011;3443;48.812;9.112;2023-02-01T00:24:23;1.87;;;1.77;;
6809;SDS011;3443;48.812;9.112;2023-02-01T00:26:48;1.50;;;1.40;;
6809;SDS011;3443;48.812;9.112;2023-02-01T00:29:15;1.33;;;1.33;;
6809;SDS011;3443;48.812;9.112;2023-02-01T00:31:43;1.43;;;1.27;;
6809;SDS011;3443;48.812;9.112;2023-02-01T00:34:12;1.60;;;1.50;;
6809;SDS011;3443;48.812;9.112;2023-02-01T00:36:38;1.37;;;1.30;;
6809;SDS011;3443;48.812;9.112;2023-02-01T00:39:04;1.20;;;1.20;;
6809;SDS011;3443;48.812;9.112;2023-02-01T00:41:30;2.10;;;1.37;;
6809;SDS011;3443;48.812;9.112;2023-02-01T00:43:55;1.27;;;1.27;;
6809;SDS011;3443;48.812;9.112;2023-02-01T00:46:21;1.37;;;1.37;;
6809;SDS011;3443;48.812;9.112;2023-02-01T00:48:47;1.30;;;1.30;;
6809;SDS011;3443;48.812;9.112;2023-02-01T00:51:14;1.10;;;1.10;;
6809;SDS011;3443;48.812;9.112;2023-02-01T00:53:41;1.10;;;1.10;;
6809;SDS011;3443;48.812;9.112;2023-02-01T00:56:07;1.20;;;1.20;;
6809;SDS011;3443;48.812;9.112;2023-02-01T00:58:34;1.10;;;1.10;;
6809;SDS011;3443;48.812;9.112;2023-02-01T01:01:00;1.60;;;1.30;;
6809;SDS011;3443;48.812;9.112;2023-02-01T01:03:34;1.10;;;1.00;;
6809;SDS011;3443;48.812;9.112;2023-02-01T01:06:03;0.90;;;0.90;;
6809;SDS011;3443;48.812;9.112;2023-02-01T01:08:31;1.20;;;0.97;;
6809;SDS011;3443;48.812;9.112;2023-02-01T01:10:57;1.00;;;1.00;;
6809;SDS011;3443;48.812;9.112;2023-02-01T01:13:22;1.00;;;1.00;;
6809;SDS011;3443;48.812;9.112;2023-02-01T01:15:48;1.27;;;1.27;;
6809;SDS011;3443;48.812;9.112;2023-02-01T01:18:14;0.97;;;0.97;;
6809;SDS011;3443;48.812;9.112;2023-02-01T01:20:40;2.67;;;1.20;;
6809;SDS011;3443;48.812;9.112;2023-02-01T01:23:07;0.90;;;0.90;;
6809;SDS011;3443;48.812;9.112;2023-02-01T01:25:36;1.30;;;1.20;;
6809;SDS011;3443;48.812;9.112;2023-02-01T01:28:03;0.73;;;0.73;;
6809;SDS011;3443;48.812;9.112;2023-02-01T01:30:28;0.83;;;0.83;;
6809;SDS011;3443;48.812;9.112;2023-02-01T01:32:54;0.70;;;0.70;;
6809;SDS011;3443;48.812;9.112;2023-02-01T01:35:20;1.23;;;1.07;;
6809;SDS011;3443;48.812;9.112;2023-02-01T01:37:45;1.17;;;1.00;;
6809;SDS011;3443;48.812;9.112;2023-02-01T01:40:11;0.70;;;0.70;;
6809;SDS011;3443;48.812;9.112;2023-02-01T01:42:37;0.80;;;0.80;;
6809;SDS011;3443;48.812;9.112;2023-02-01T01:47:40;0.77;;;0.77;;
6809;SDS011;3443;48.812;9.112;2023-02-01T01:50:14;0.60;;;0.60;;
6809;SDS011;3443;48.812;9.112;2023-02-01T01:52:43;0.70;;;0.70;;
6809;SDS011;3443;48.812;9.112;2023-02-01T01:55:11;0.73;;;0.73;;
6809;SDS011;3443;48.812;9.112;2023-02-01T01:57:39;0.63;;;0.63;;
6809;SDS011;3443;48.812;9.112;2023-02-01T02:00:12;0.53;;;0.53;;
6809;SDS011;3443;48.812;9.112;2023-02-01T02:02:39;0.70;;;0.70;;
6809;SDS011;3443;48.812;9.112;2023-02-01T02:05:08;0.97;;;0.70;;
6809;SDS011;3443;48.812;9.112;2023-02-01T02:07:36;0.60;;;0.60;;
6809;SDS011;3443;48.812;9.112;2023-02-01T02:10:05;0.60;;;0.60;;
6809;SDS011;3443;48.812;9.112;2023-02-01T02:12:35;0.70;;;0.70;;
6809;SDS011;3443;48.812;9.112;2023-02-01T02:15:04;0.57;;;0.57;;
6809;SDS011;3443;48.812;9.112;2023-02-01T02:20:29;0.80;;;0.80;;
6809;SDS011;3443;48.812;9.112;2023-02-01T02:26:23;1.00;;;0.90;;
6809;SDS011;3443;48.812;9.112;2023-02-01T02:31:27;0.67;;;0.67;;
6809;SDS011;3443;48.812;9.112;2023-02-01T02:34:18;0.87;;;0.87;;
6809;SDS011;3443;48.812;9.112;2023-02-01T02:36:51;0.70;;;0.70;;
6809;SDS011;3443;48.812;9.112;2023-02-01T02:45:18;1.00;;;1.00;;
6809;SDS011;3443;48.812;9.112;2023-02-01T02:50:45;1.30;;;1.20;;
6809;SDS011;3443;48.812;9.112;2023-02-01T02:53:58;1.10;;;1.10;;
6809;SDS011;3443;48.812;9.112;2023-02-01T02:56:44;1.00;;;1.00;;
6809;SDS011;3443;48.812;9.112;2023-02-01T02:59:28;1.20;;;1.20;;
6809;SDS011;3443;48.812;9.112;2023-02-01T03:02:14;1.10;;;1.10;;
6809;SDS011;3443;48.812;9.112;2023-02-01T03:04:59;1.00;;;1.00;;
6809;SDS011;3443;48.812;9.112;2023-02-01T03:12:53;1.20;;;1.20;;
6809;SDS011;3443;48.812;9.112;2023-02-01T03:15:25;1.07;;;1.07;;
6809;SDS011;3443;48.812;9.112;2023-02-01T03:17:56;1.27;;;1.00;;
6809;SDS011;3443;48.812;9.112;2023-02-01T03:20:25;1.30;;;1.30;;
6809;SDS011;3443;48.812;9.112;2023-02-01T03:22:52;0.83;;;0.83;;
6809;SDS011;3443;48.812;9.112;2023-02-01T03:25:22;1.27;;;0.97;;
6809;SDS011;3443;48.812;9.112;2023-02-01T03:28:03;0.93;;;0.73;;
6809;SDS011;3443;48.812;9.112;2023-02-01T03:30:33;1.47;;;0.97;;
6809;SDS011;3443;48.812;9.112;2023-02-01T03:33:02;1.00;;;1.00;;
6809;SDS011;3443;48.812;9.112;2023-02-01T03:38:38;1.00;;;0.93;;
6809;SDS011;3443;48.812;9.112;2023-02-01T03:43:50;1.13;;;1.13;;
6809;SDS011;3443;48.812;9.112;2023-02-01T03:46:28;1.00;;;1.00;;
6809;SDS011;3443;48.812;9.112;2023-02-01T03:48:59;0.73;;;0.73;;
6809;SDS011;3443;48.812;9.112;2023-02-01T03:51:27;0.70;;;0.70;;
6809;SDS011;3443;48.812;9.112;2023-02-01T03:53:54;0.73;;;0.73;;
6809;SDS011;3443;48.812;9.112;2023-02-01T03:56:21;1.03;;;0.93;;
6809;SDS011;3443;48.812;9.112;2023-02-01T03:58:48;0.70;;;0.70;;
6809;SDS011;3443;48.812;9.112;2023-02-01T04:01:24;0.80;;;0.80;;
6809;SDS011;3443;48.812;9.112;2023-02-01T04:03:51;2.00;;;0.90;;
6809;SDS011;3443;48.812;9.112;2023-02-01T04:06:17;0.73;;;0.73;;
6809;SDS011;3443;48.812;9.112;2023-02-01T04:08:43;1.10;;;1.10;;
6809;SDS011;3443;48.812;9.112;2023-02-01T04:11:09;0.80;;;0.80;;
6809;SDS011;3443;48.812;9.112;2023-02-01T04:13:34;0.63;;;0.63;;
6809;SDS011;3443;48.812;9.112;2023-02-01T04:16:00;0.90;;;0.90;;
6809;SDS011;3443;48.812;9.112;2023-02-01T04:18:25;0.50;;;0.50;;
6809;SDS011;3443;48.812;9.112;2023-02-01T04:20:51;0.60;;;0.60;;
6809;SDS011;3443;48.812;9.112;2023-02-01T04:23:16;0.73;;;0.73;;
6809;SDS011;3443;48.812;9.112;2023-02-01T04:25:42;1.50;;;0.97;;
6809;SDS011;3443;48.812;9.112;2023-02-01T04:28:08;0.47;;;0.47;;
6809;SDS011;3443;48.812;9.112;2023-02-01T04:30:34;0.70;;;0.70;;
6809;SDS011;3443;48.812;9.112;2023-02-01T04:32:59;1.00;;;1.00;;
6809;SDS011;3443;48.812;9.112;2023-02-01T04:35:25;0.90;;;0.90;;
6809;SDS011;3443;48.812;9.112;2023-02-01T04:37:50;0.73;;;0.73;;
6809;SDS011;3443;48.812;9.112;2023-02-01T04:40:16;0.73;;;0.73;;
6809;SDS011;3443;48.812;9.112;2023-02-01T04:42:41;0.77;;;0.77;;
6809;SDS011;3443;48.812;9.112;2023-02-01T04:45:07;0.90;;;0.90;;
6809;SDS011;3443;48.812;9.112;2023-02-01T04:47:33;0.73;;;0.73;;
6809;SDS011;3443;48.812;9.112;2023-02-01T04:49:59;0.73;;;0.73;;
6809;SDS011;3443;48.812;9.112;2023-02-01T04:52:25;0.90;;;0.90;;
6809;SDS011;3443;48.812;9.112;2023-02-01T04:54:52;0.60;;;0.60;;
6809;SDS011;3443;48.812;9.112;2023-02-01T04:57:19;0.70;;;0.70;;
6809;SDS011;3443;48.812;9.112;2023-02-01T04:59:44;0.63;;;0.63;;
6809;SDS011;3443;48.812;9.112;2023-02-01T05:02:10;0.57;;;0.57;;
6809;SDS011;3443;48.812;9.112;2023-02-01T05:04:35;0.67;;;0.67;;
6809;SDS011;3443;48.812;9.112;2023-02-01T05:07:01;0.70;;;0.70;;
6809;SDS011;3443;48.812;9.112;2023-02-01T05:09:27;2.70;;;0.90;;
6809;SDS011;3443;48.812;9.112;2023-02-01T05:11:52;0.97;;;0.87;;
6809;SDS011;3443;48.812;9.112;2023-02-01T05:14:36;0.90;;;0.77;;
6809;SDS011;3443;48.812;9.112;2023-02-01T05:17:02;1.03;;;0.70;;
6809;SDS011;3443;48.812;9.112;2023-02-01T05:19:27;0.70;;;0.70;;
6809;SDS011;3443;48.812;9.112;2023-02-01T05:21:53;0.73;;;0.73;;
6809;SDS011;3443;48.812;9.112;2023-02-01T05:24:18;1.60;;;0.80;;
6809;SDS011;3443;48.812;9.112;2023-02-01T05:26:47;1.27;;;0.63;;
6809;SDS011;3443;48.812;9.112;2023-02-01T05:29:13;0.97;;;0.80;;
6809;SDS011;3443;48.812;9.112;2023-02-01T05:31:40;0.87;;;0.50;;
6809;SDS011;3443;48.812;9.112;2023-02-01T05:34:06;0.75;;;0.60;;
6809;SDS011;3443;48.812;9.112;2023-02-01T05:36:32;0.70;;;0.40;;
6809;SDS011;3443;48.812;9.112;2023-02-01T05:38:58;1.00;;;0.90;;
6809;SDS011;3443;48.812;9.112;2023-02-01T05:41:23;0.82;;;0.82;;
6809;SDS011;3443;48.812;9.112;2023-02-01T05:43:49;0.55;;;0.55;;
6809;SDS011;3443;48.812;9.112;2023-02-01T05:46:15;0.77;;;0.77;;
6809;SDS011;3443;48.812;9.112;2023-02-01T05:48:41;0.90;;;0.90;;
6809;SDS011;3443;48.812;9.112;2023-02-01T05:51:08;0.50;;;0.50;;
6809;SDS011;3443;48.812;9.112;2023-02-01T05:53:35;0.97;;;0.70;;
6809;SDS011;3443;48.812;9.112;2023-02-01T05:56:00;1.27;;;0.63;;
6809;SDS011;3443;48.812;9.112;2023-02-01T05:58:26;1.53;;;0.70;;
6809;SDS011;3443;48.812;9.112;2023-02-01T06:00:52;0.80;;;0.80;;
6809;SDS011;3443;48.812;9.112;2023-02-01T06:03:18;1.67;;;0.77;;
6809;SDS011;3443;48.812;9.112;2023-02-01T06:05:44;1.70;;;0.97;;
6809;SDS011;3443;48.812;9.112;2023-02-01T06:08:11;1.83;;;0.80;;
6809;SDS011;3443;48.812;9.112;2023-02-01T06:10:37;0.70;;;0.70;;
6809;SDS011;3443;48.812;9.112;2023-02-01T06:13:03;0.73;;;0.73;;
6809;SDS011;3443;48.812;9.112;2023-02-01T06:15:29;1.97;;;0.80;;
6809;SDS011;3443;48.812;9.112;2023-02-01T06:17:55;1.53;;;0.80;;
6809;SDS011;3443;48.812;9.112;2023-02-01T06:20:21;1.97;;;1.13;;
6809;SDS011;3443;48.812;9.112;2023-02-01T06:22:46;3.93;;;0.90;;
6809;SDS011;3443;48.812;9.112;2023-02-01T06:25:12;2.40;;;0.70;;
6809;SDS011;3443;48.812;9.112;2023-02-01T06:27:37;4.10;;;1.00;;
6809;SDS011;3443;48.812;9.112;2023-02-01T06:30:04;1.33;;;0.90;;
6809;SDS011;3443;48.812;9.112;2023-02-01T06:32:30;1.53;;;1.23;;
6809;SDS011;3443;48.812;9.112;2023-02-01T06:34:56;1.23;;;1.10;;
6809;SDS011;3443;48.812;9.112;2023-02-01T06:37:22;2.90;;;1.50;;
6809;SDS011;3443;48.812;9.112;2023-02-01T06:39:49;1.30;;;1.30;;
6809;SDS011;3443;48.812;9.112;2023-02-01T06:42:15;1.87;;;1.13;;
6809;SDS011;3443;48.812;9.112;2023-02-01T06:44:41;1.57;;;1.47;;
6809;SDS011;3443;48.812;9.112;2023-02-01T06:47:06;1.93;;;1.20;;
6809;SDS011;3443;48.812;9.112;2023-02-01T06:49:32;3.50;;;1.10;;
6809;SDS011;3443;48.812;9.112;2023-02-01T06:51:58;1.33;;;1.23;;
6809;SDS011;3443;48.812;9.112;2023-02-01T06:54:25;1.97;;;1.57;;
6809;SDS011;3443;48.812;9.112;2023-02-01T06:56:51;2.00;;;1.80;;
6809;SDS011;3443;48.812;9.112;2023-02-01T06:59:16;1.83;;;1.70;;
6809;SDS011;3443;48.812;9.112;2023-02-01T07:01:42;2.17;;;1.60;;
6809;SDS011;3443;48.812;9.112;2023-02-01T07:04:09;3.60;;;1.60;;
6809;SDS011;3443;48.812;9.112;2023-02-01T07:06:38;3.23;;;1.80;;
6809;SDS011;3443;48.812;9.112;2023-02-01T07:09:04;2.60;;;1.73;;
6809;SDS011;3443;48.812;9.112;2023-02-01T07:11:30;1.53;;;1.40;;
6809;SDS011;3443;48.812;9.112;2023-02-01T07:13:55;4.83;;;1.37;;
6809;SDS011;3443;48.812;9.112;2023-02-01T07:16:21;3.80;;;1.90;;
6809;SDS011;3443;48.812;9.112;2023-02-01T07:18:47;3.55;;;1.60;;
6809;SDS011;3443;48.812;9.112;2023-02-01T07:21:14;3.77;;;1.97;;
6809;SDS011;3443;48.812;9.112;2023-02-01T07:23:39;3.37;;;1.60;;
6809;SDS011;3443;48.812;9.112;2023-02-01T07:26:06;4.30;;;1.80;;
6809;SDS011;3443;48.812;9.112;2023-02-01T07:28:34;1.90;;;1.48;;
6809;SDS011;3443;48.812;9.112;2023-02-01T07:33:31;3.00;;;1.73;;
6809;SDS011;3443;48.812;9.112;2023-02-01T07:35:57;5.88;;;2.00;;
6809;SDS011;3443;48.812;9.112;2023-02-01T07:38:25;5.03;;;1.97;;
6809;SDS011;3443;48.812;9.112;2023-02-01T07:40:51;4.87;;;2.03;;
6809;SDS011;3443;48.812;9.112;2023-02-01T07:43:28;6.37;;;2.30;;
6809;SDS011;3443;48.812;9.112;2023-02-01T07:45:55;3.83;;;2.37;;
6809;SDS011;3443;48.812;9.112;2023-02-01T07:48:21;18.40;;;4.15;;
6809;SDS011;3443;48.812;9.112;2023-02-01T07:50:48;5.40;;;2.00;;
6809;SDS011;3443;48.812;9.112;2023-02-01T07:53:21;4.93;;;1.83;;
6809;SDS011;3443;48.812;9.112;2023-02-01T07:55:46;4.82;;;2.13;;
6809;SDS011;3443;48.812;9.112;2023-02-01T07:58:12;5.70;;;2.00;;
6809;SDS011;3443;48.812;9.112;2023-02-01T08:00:38;3.33;;;2.05;;
6809;SDS011;3443;48.812;9.112;2023-02-01T08:03:22;6.47;;;2.15;;
6809;SDS011;3443;48.812;9.112;2023-02-01T08:05:48;4.40;;;2.25;;
6809;SDS011;3443;48.812;9.112;2023-02-01T08:08:18;8.45;;;2.00;;
6809;SDS011;3443;48.812;9.112;2023-02-01T08:10:43;5.47;;;2.17;;
6809;SDS011;3443;48.812;9.112;2023-02-01T08:13:09;6.53;;;2.50;;
6809;SDS011;3443;48.812;9.112;2023-02-01T08:15:35;3.03;;;1.87;;
6809;SDS011;3443;48.812;9.112;2023-02-01T08:18:00;5.68;;;1.77;;
6809;SDS011;3443;48.812;9.112;2023-02-01T08:20:27;5.18;;;1.77;;
6809;SDS011;3443;48.812;9.112;2023-02-01T08:22:53;4.10;;;1.80;;
6809;SDS011;3443;48.812;9.112;2023-02-01T08:25:19;5.63;;;1.65;;
6809;SDS011;3443;48.812;9.112;2023-02-01T08:27:45;7.70;;;2.10;;
6809;SDS011;3443;48.812;9.112;2023-02-01T08:30:11;3.45;;;1.65;;
6809;SDS011;3443;48.812;9.112;2023-02-01T08:32:37;7.65;;;2.15;;
6809;SDS011;3443;48.812;9.112;2023-02-01T08:35:05;2.83;;;1.80;;
6809;SDS011;3443;48.812;9.112;2023-02-01T08:37:31;5.63;;;2.05;;
6809;SDS011;3443;48.812;9.112;2023-02-01T08:39:57;6.50;;;2.10;;
6809;SDS011;3443;48.812;9.112;2023-02-01T08:42:23;5.05;;;1.75;;
6809;SDS011;3443;48.812;9.112;2023-02-01T08:45:07;6.93;;;1.90;;
6809;SDS011;3443;48.812;9.112;2023-02-01T08:47:34;5.13;;;1.77;;
6809;SDS011;3443;48.812;9.112;2023-02-01T08:50:00;9.35;;;2.15;;
6809;SDS011;3443;48.812;9.112;2023-02-01T08:52:25;5.03;;;2.33;;
6809;SDS011;3443;48.812;9.112;2023-02-01T08:54:51;4.78;;;1.83;;
6809;SDS011;3443;48.812;9.112;2023-02-01T08:57:16;5.25;;;2.00;;
6809;SDS011;3443;48.812;9.112;2023-02-01T08:59:42;7.13;;;2.20;;
6809;SDS011;3443;48.812;9.112;2023-02-01T09:02:12;6.68;;;2.28;;
6809;SDS011;3443;48.812;9.112;2023-02-01T09:04:38;8.00;;;1.80;;
6809;SDS011;3443;48.812;9.112;2023-02-01T09:07:04;4.25;;;1.60;;
6809;SDS011;3443;48.812;9.112;2023-02-01T09:09:30;5.47;;;1.98;;
6809;SDS011;3443;48.812;9.112;2023-02-01T09:11:55;7.95;;;2.13;;
6809;SDS011;3443;48.812;9.112;2023-02-01T09:14:21;8.38;;;2.08;;
6809;SDS011;3443;48.812;9.112;2023-02-01T09:16:46;7.07;;;1.70;;
6809;SDS011;3443;48.812;9.112;2023-02-01T09:19:12;4.60;;;1.83;;
6809;SDS011;3443;48.812;9.112;2023-02-01T09:21:37;7.63;;;2.30;;
6809;SDS011;3443;48.812;9.112;2023-02-01T09:24:03;6.97;;;2.15;;
6809;SDS011;3443;48.812;9.112;2023-02-01T09:26:29;5.30;;;1.77;;
6809;SDS011;3443;48.812;9.112;2023-02-01T09:28:55;8.18;;;1.88;;
6809;SDS011;3443;48.812;9.112;2023-02-01T09:31:20;5.80;;;2.00;;
6809;SDS011;3443;48.812;9.112;2023-02-01T09:33:46;10.95;;;2.00;;
6809;SDS011;3443;48.812;9.112;2023-02-01T09:36:11;3.63;;;1.73;;
6809;SDS011;3443;48.812;9.112;2023-02-01T09:38:37;3.92;;;2.00;;
6809;SDS011;3443;48.812;9.112;2023-02-01T09:41:06;3.67;;;1.65;;
6809;SDS011;3443;48.812;9.112;2023-02-01T09:43:58;3.22;;;1.45;;
6809;SDS011;3443;48.812;9.112;2023-02-01T09:46:31;4.20;;;1.70;;
6809;SDS011;3443;48.812;9.112;2023-02-01T09:49:00;6.60;;;1.60;;
6809;SDS011;3443;48.812;9.112;2023-02-01T09:51:39;7.68;;;2.35;;
6809;SDS011;3443;48.812;9.112;2023-02-01T09:54:09;8.80;;;1.77;;
6809;SDS011;3443;48.812;9.112;2023-02-01T09:57:04;3.97;;;1.65;;
6809;SDS011;3443;48.812;9.112;2023-02-01T09:59:34;4.32;;;1.77;;
6809;SDS011;3443;48.812;9.112;2023-02-01T10:02:10;8.82;;;1.92;;
6809;SDS011;3443;48.812;9.112;2023-02-01T10:04:52;10.52;;;1.60;;
6809;SDS011;3443;48.812;9.112;2023-02-01T10:07:22;9.20;;;2.05;;
6809;SDS011;3443;48.812;9.112;2023-02-01T10:10:11;4.03;;;1.63;;
6809;SDS011;3443;48.812;9.112;2023-02-01T10:15:40;6.55;;;1.50;;
6809;SDS011;3443;48.812;9.112;2023-02-01T10:18:40;6.00;;;2.50;;
6809;SDS011;3443;48.812;9.112;2023-02-01T10:21:28;8.27;;;1.85;;
6809;SDS011;3443;48.812;9.112;2023-02-01T10:24:17;11.10;;;1.63;;
6809;SDS011;3443;48.812;9.112;2023-02-01T10:27:11;7.78;;;1.88;;
6809;SDS011;3443;48.812;9.112;2023-02-01T10:29:41;6.63;;;1.45;;
6809;SDS011;3443;48.812;9.112;2023-02-01T10:32:16;7.40;;;1.50;;
6809;SDS011;3443;48.812;9.112;2023-02-01T10:34:47;7.68;;;1.75;;
6809;SDS011;3443;48.812;9.112;2023-02-01T10:37:24;4.38;;;1.83;;
6809;SDS011;3443;48.812;9.112;2023-02-01T10:39:54;6.72;;;1.67;;
6809;SDS011;3443;48.812;9.112;2023-02-01T10:42:23;9.57;;;2.00;;
6809;SDS011;3443;48.812;9.112;2023-02-01T10:44:51;5.65;;;1.75;;
6809;SDS011;3443;48.812;9.112;2023-02-01T10:47:19;9.10;;;1.90;;
6809;SDS011;3443;48.812;9.112;2023-02-01T10:52:38;7.82;;;2.42;;
6809;SDS011;3443;48.812;9.112;2023-02-01T10:57:57;11.25;;;1.75;;
6809;SDS011;3443;48.812;9.112;2023-02-01T11:00:24;8.85;;;1.98;;
6809;SDS011;3443;48.812;9.112;2023-02-01T11:02:50;7.15;;;1.70;;
6809;SDS011;3443;48.812;9.112;2023-02-01T11:05:17;7.03;;;1.60;;
6809;SDS011;3443;48.812;9.112;2023-02-01T11:07:47;6.10;;;1.40;;
6809;SDS011;3443;48.812;9.112;2023-02-01T11:13:04;12.55;;;1.70;;
6809;SDS011;3443;48.812;9.112;2023-02-01T11:15:30;9.07;;;1.55;;
6809;SDS011;3443;48.812;9.112;2023-02-01T11:17:56;6.15;;;1.67;;
6809;SDS011;3443;48.812;9.112;2023-02-01T11:20:40;8.50;;;1.90;;
6809;SDS011;3443;48.812;9.112;2023-02-01T11:23:16;4.65;;;1.80;;
6809;SDS011;3443;48.812;9.112;2023-02-01T11:25:52;9.73;;;1.67;;
6809;SDS011;3443;48.812;9.112;2023-02-01T11:28:31;5.32;;;1.50;;
6809;SDS011;3443;48.812;9.112;2023-02-01T11:30:59;8.25;;;1.50;;
6809;SDS011;3443;48.812;9.112;2023-02-01T11:33:29;11.73;;;1.92;;
6809;SDS011;3443;48.812;9.112;2023-02-01T11:36:00;3.97;;;1.27;;
6809;SDS011;3443;48.812;9.112;2023-02-01T11:38:32;8.93;;;1.73;;
6809;SDS011;3443;48.812;9.112;2023-02-01T11:41:12;7.50;;;1.73;;
6809;SDS011;3443;48.812;9.112;2023-02-01T11:44:00;7.05;;;1.33;;
6809;SDS011;3443;48.812;9.112;2023-02-01T11:46:31;6.28;;;1.58;;
6809;SDS011;3443;48.812;9.112;2023-02-01T11:51:54;7.57;;;1.88;;
6809;SDS011;3443;48.812;9.112;2023-02-01T11:57:46;4.85;;;1.45;;
6809;SDS011;3443;48.812;9.112;2023-02-01T12:13:59;7.07;;;1.20;;
6809;SDS011;3443;48.812;9.112;2023-02-01T12:22:21;5.25;;;1.42;;
6809;SDS011;3443;48.812;9.112;2023-02-01T12:25:20;5.05;;;1.55;;
6809;SDS011;3443;48.812;9.112;2023-02-01T12:38:03;6.07;;;1.50;;
6809;SDS011;3443;48.812;9.112;2023-02-01T12:46:15;3.15;;;1.10;;
6809;SDS011;3443;48.812;9.112;2023-02-01T12:48:56;7.30;;;1.60;;
6809;SDS011;3443;48.812;9.112;2023-02-01T12:51:24;5.30;;;1.30;;
6809;SDS011;3443;48.812;9.112;2023-02-01T12:54:01;8.45;;;2.13;;
6809;SDS011;3443;48.812;9.112;2023-02-01T12:59:01;5.30;;;1.55;;
6809;SDS011;3443;48.812;9.112;2023-02-01T13:04:49;5.53;;;1.10;;
6809;SDS011;3443;48.812;9.112;2023-02-01T13:07:39;4.38;;;1.50;;
6809;SDS011;3443;48.812;9.112;2023-02-01T13:13:14;7.45;;;1.50;;
6809;SDS011;3443;48.812;9.112;2023-02-01T13:15:48;6.88;;;1.63;;
6809;SDS011;3443;48.812;9.112;2023-02-01T13:18:21;7.00;;;1.25;;
6809;SDS011;3443;48.812;9.112;2023-02-01T13:21:25;8.93;;;1.50;;
6809;SDS011;3443;48.812;9.112;2023-02-01T13:23:47;9.63;;;1.52;;
6809;SDS011;3443;48.812;9.112;2023-02-01T13:26:13;5.88;;;1.60;;
6809;SDS011;3443;48.812;9.112;2023-02-01T13:28:44;4.70;;;1.45;;
6809;SDS011;3443;48.812;9.112;2023-02-01T13:37:05;17.13;;;4.82;;
6809;SDS011;3443;48.812;9.112;2023-02-01T13:43:02;7.43;;;1.58;;
6809;SDS011;3443;48.812;9.112;2023-02-01T13:46:06;7.13;;;1.58;;
6809;SDS011;3443;48.812;9.112;2023-02-01T13:51:11;9.18;;;2.28;;
6809;SDS011;3443;48.812;9.112;2023-02-01T13:53:43;7.50;;;1.50;;
6809;SDS011;3443;48.812;9.112;2023-02-01T13:58:42;13.07;;;2.42;;
6809;SDS011;3443;48.812;9.112;2023-02-01T14:01:54;10.60;;;4.22;;
6809;SDS011;3443;48.812;9.112;2023-02-01T14:03:55;14.38;;;3.58;;
6809;SDS011;3443;48.812;9.112;2023-02-01T14:11:48;7.47;;;1.67;;
6809;SDS011;3443;48.812;9.112;2023-02-01T14:16:40;6.88;;;1.40;;
6809;SDS011;3443;48.812;9.112;2023-02-01T14:19:32;5.70;;;1.60;;
6809;SDS011;3443;48.812;9.112;2023-02-01T14:21:59;7.57;;;1.75;;
6809;SDS011;3443;48.812;9.112;2023-02-01T14:24:30;6.80;;;1.58;;
6809;SDS011;3443;48.812;9.112;2023-02-01T14:27:02;5.60;;;2.75;;
6809;SDS011;3443;48.812;9.112;2023-02-01T14:29:37;6.18;;;1.65;;
6809;SDS011;3443;48.812;9.112;2023-02-01T14:32:15;6.27;;;1.37;;
6809;SDS011;3443;48.812;9.112;2023-02-01T14:44:39;4.10;;;2.07;;
6809;SDS011;3443;48.812;9.112;2023-02-01T14:47:06;12.00;;;2.25;;
6809;SDS011;3443;48.812;9.112;2023-02-01T14:50:18;6.95;;;1.73;;
6809;SDS011;3443;48.812;9.112;2023-02-01T15:01:14;8.93;;;1.77;;
6809;SDS011;3443;48.812;9.112;2023-02-01T15:04:19;5.35;;;1.40;;
6809;SDS011;3443;48.812;9.112;2023-02-01T15:09:30;4.57;;;1.50;;
6809;SDS011;3443;48.812;9.112;2023-02-01T15:14:22;6.23;;;1.40;;
6809;SDS011;3443;48.812;9.112;2023-02-01T15:16:48;6.70;;;1.33;;
6809;SDS011;3443;48.812;9.112;2023-02-01T15:19:19;3.47;;;1.30;;
6809;SDS011;3443;48.812;9.112;2023-02-01T15:21:50;8.80;;;3.75;;
6809;SDS011;3443;48.812;9.112;2023-02-01T15:26:45;8.32;;;1.90;;
6809;SDS011;3443;48.812;9.112;2023-02-01T15:29:12;5.00;;;1.48;;
6809;SDS011;3443;48.812;9.112;2023-02-01T15:31:46;8.07;;;1.73;;
6809;SDS011;3443;48.812;9.112;2023-02-01T15:34:13;7.40;;;1.67;;
6809;SDS011;3443;48.812;9.112;2023-02-01T15:36:39;5.80;;;1.60;;
6809;SDS011;3443;48.812;9.112;2023-02-01T15:39:21;9.60;;;1.83;;
6809;SDS011;3443;48.812;9.112;2023-02-01T15:42:09;4.50;;;1.85;;
6809;SDS011;3443;48.812;9.112;2023-02-01T15:44:40;5.95;;;1.40;;
6809;SDS011;3443;48.812;9.112;2023-02-01T15:47:19;5.90;;;1.63;;
6809;SDS011;3443;48.812;9.112;2023-02-01T15:49:53;7.85;;;1.80;;
6809;SDS011;3443;48.812;9.112;2023-02-01T15:52:21;4.97;;;1.70;;
6809;SDS011;3443;48.812;9.112;2023-02-01T15:54:53;5.33;;;1.80;;
6809;SDS011;3443;48.812;9.112;2023-02-01T15:57:23;4.45;;;1.60;;
6809;SDS011;3443;48.812;9.112;2023-02-01T16:00:02;3.22;;;1.50;;
6809;SDS011;3443;48.812;9.112;2023-02-01T16:02:37;8.98;;;2.20;;
6809;SDS011;3443;48.812;9.112;2023-02-01T16:08:14;3.42;;;1.33;;
6809;SDS011;3443;48.812;9.112;2023-02-01T16:10:43;4.05;;;1.38;;
6809;SDS011;3443;48.812;9.112;2023-02-01T16:13:10;8.35;;;2.08;;
6809;SDS011;3443;48.812;9.112;2023-02-01T16:15:36;6.00;;;1.45;;
6809;SDS011;3443;48.812;9.112;2023-02-01T16:18:02;4.85;;;2.65;;
6809;SDS011;3443;48.812;9.112;2023-02-01T16:20:28;11.68;;;4.60;;
6809;SDS011;3443;48.812;9.112;2023-02-01T16:22:54;8.32;;;3.17;;
6809;SDS011;3443;48.812;9.112;2023-02-01T16:25:20;7.43;;;1.67;;
6809;SDS011;3443;48.812;9.112;2023-02-01T16:27:46;4.85;;;1.58;;
6809;SDS011;3443;48.812;9.112;2023-02-01T16:30:11;5.15;;;1.70;;
6809;SDS011;3443;48.812;9.112;2023-02-01T16:32:37;5.07;;;1.48;;
6809;SDS011;3443;48.812;9.112;2023-02-01T16:35:13;6.25;;;1.42;;
6809;SDS011;3443;48.812;9.112;2023-02-01T16:37:47;5.30;;;1.40;;
6809;SDS011;3443;48.812;9.112;2023-02-01T16:40:13;4.15;;;1.50;;
6809;SDS011;3443;48.812;9.112;2023-02-01T16:42:40;6.82;;;1.75;;
6809;SDS011;3443;48.812;9.112;2023-02-01T16:45:06;5.53;;;1.93;;
6809;SDS011;3443;48.812;9.112;2023-02-01T16:47:33;6.35;;;1.83;;
6809;SDS011;3443;48.812;9.112;2023-02-01T16:50:01;3.58;;;1.17;;
6809;SDS011;3443;48.812;9.112;2023-02-01T16:52:26;5.13;;;1.42;;
6809;SDS011;3443;48.812;9.112;2023-02-01T16:54:52;5.68;;;1.50;;
6809;SDS011;3443;48.812;9.112;2023-02-01T16:57:18;4.57;;;1.15;;
6809;SDS011;3443;48.812;9.112;2023-02-01T16:59:47;4.22;;;1.83;;
6809;SDS011;3443;48.812;9.112;2023-02-01T17:02:14;8.50;;;1.67;;
6809;SDS011;3443;48.812;9.112;2023-02-01T17:04:41;5.13;;;3.20;;
6809;SDS011;3443;48.812;9.112;2023-02-01T17:07:10;3.45;;;1.90;;
6809;SDS011;3443;48.812;9.112;2023-02-01T17:09:38;10.73;;;1.95;;
6809;SDS011;3443;48.812;9.112;2023-02-01T17:12:04;5.90;;;1.80;;
6809;SDS011;3443;48.812;9.112;2023-02-01T17:14:31;5.43;;;1.83;;
6809;SDS011;3443;48.812;9.112;2023-02-01T17:17:01;7.32;;;2.08;;
6809;SDS011;3443;48.812;9.112;2023-02-01T17:19:26;4.10;;;1.20;;
6809;SDS011;3443;48.812;9.112;2023-02-01T17:21:53;3.63;;;1.52;;
6809;SDS011;3443;48.812;9.112;2023-02-01T17:24:22;4.07;;;1.50;;
6809;SDS011;3443;48.812;9.112;2023-02-01T17:26:50;5.07;;;1.35;;
6809;SDS011;3443;48.812;9.112;2023-02-01T17:29:16;5.00;;;1.52;;
6809;SDS011;3443;48.812;9.112;2023-02-01T17:31:47;4.43;;;1.58;;
6809;SDS011;3443;48.812;9.112;2023-02-01T17:34:18;4.30;;;1.48;;
6809;SDS011;3443;48.812;9.112;2023-02-01T17:36:44;4.57;;;1.63;;
6809;SDS011;3443;48.812;9.112;2023-02-01T17:39:11;10.98;;;1.50;;
6809;SDS011;3443;48.812;9.112;2023-02-01T17:41:56;10.05;;;1.42;;
6809;SDS011;3443;48.812;9.112;2023-02-01T17:44:22;5.28;;;1.75;;
6809;SDS011;3443;48.812;9.112;2023-02-01T17:46:48;4.53;;;1.75;;
6809;SDS011;3443;48.812;9.112;2023-02-01T17:49:13;5.55;;;1.77;;
6809;SDS011;3443;48.812;9.112;2023-02-01T17:51:39;8.82;;;1.73;;
6809;SDS011;3443;48.812;9.112;2023-02-01T17:54:07;7.63;;;3.10;;
6809;SDS011;3443;48.812;9.112;2023-02-01T17:56:37;5.60;;;2.17;;